Terminal Aerodrome Forecast
Issued by NWS Charleston, WV

Current Version | Previous Version | Graphics & Text | Print | Product List | Glossary On
Versions: 1 2 3 4 5 6 7 8 9 10 11 12 13 14 15 16 17 18 19 20 21 22 23
000
FTUS41 KRLX 270646 AAA
TAFCRW
TAF AMD
KCRW 270646Z 2707/2806 00000KT P6SM SCT001
     FM270730 00000KT 4SM BR SCT001
     FM270800 00000KT 1/4SM FG VV001
     FM271300 VRB03KT 4SM BR SCT001
     FM271400 VRB03KT P6SM SKC
     FM271800 04006KT P6SM SCT040
     FM272300 00000KT P6SM SKC=

USA.gov is the U.S. government's official web portal to all federal, state and local government web resources and services.